sensor_id;sensor_type;location;lat;lon;timestamp;P1;durP1;ratioP1;P2;durP2;ratioP2
12665;SDS011;58531;59.050;17.416;2023-04-06T00:00:37;2.77;;;1.73;;
12665;SDS011;58531;59.050;17.416;2023-04-06T00:03:04;4.10;;;1.73;;
12665;SDS011;58531;59.050;17.416;2023-04-06T00:05:32;2.53;;;1.70;;
12665;SDS011;58531;59.050;17.416;2023-04-06T00:07:59;2.57;;;1.90;;
12665;SDS011;58531;59.050;17.416;2023-04-06T00:10:26;3.67;;;2.07;;
12665;SDS011;58531;59.050;17.416;2023-04-06T00:12:53;2.67;;;2.03;;
12665;SDS011;58531;59.050;17.416;2023-04-06T00:15:21;3.03;;;1.93;;
12665;SDS011;58531;59.050;17.416;2023-04-06T00:17:48;3.90;;;1.70;;
12665;SDS011;58531;59.050;17.416;2023-04-06T00:20:15;2.37;;;1.60;;
12665;SDS011;58531;59.050;17.416;2023-04-06T00:22:44;2.20;;;2.00;;
12665;SDS011;58531;59.050;17.416;2023-04-06T00:25:11;2.60;;;1.83;;
12665;SDS011;58531;59.050;17.416;2023-04-06T00:27:40;2.93;;;2.20;;
12665;SDS011;58531;59.050;17.416;2023-04-06T00:30:08;2.13;;;1.63;;
12665;SDS011;58531;59.050;17.416;2023-04-06T00:32:35;3.57;;;1.63;;
12665;SDS011;58531;59.050;17.416;2023-04-06T00:35:02;4.07;;;1.83;;
12665;SDS011;58531;59.050;17.416;2023-04-06T00:37:29;2.27;;;1.63;;
12665;SDS011;58531;59.050;17.416;2023-04-06T00:39:58;4.20;;;1.87;;
12665;SDS011;58531;59.050;17.416;2023-04-06T00:42:25;2.57;;;1.77;;
12665;SDS011;58531;59.050;17.416;2023-04-06T00:44:52;2.20;;;1.43;;
12665;SDS011;58531;59.050;17.416;2023-04-06T00:47:19;3.67;;;1.57;;
12665;SDS011;58531;59.050;17.416;2023-04-06T00:49:46;2.50;;;1.70;;
12665;SDS011;58531;59.050;17.416;2023-04-06T00:52:13;2.47;;;1.63;;
12665;SDS011;58531;59.050;17.416;2023-04-06T00:54:41;3.83;;;1.53;;
12665;SDS011;58531;59.050;17.416;2023-04-06T00:57:09;2.37;;;1.40;;
12665;SDS011;58531;59.050;17.416;2023-04-06T00:59:36;2.40;;;1.57;;
12665;SDS011;58531;59.050;17.416;2023-04-06T01:02:03;2.47;;;1.60;;
12665;SDS011;58531;59.050;17.416;2023-04-06T01:04:30;2.17;;;1.57;;
12665;SDS011;58531;59.050;17.416;2023-04-06T01:06:57;3.73;;;1.77;;
12665;SDS011;58531;59.050;17.416;2023-04-06T01:09:24;2.37;;;1.50;;
12665;SDS011;58531;59.050;17.416;2023-04-06T01:11:53;3.53;;;1.67;;
12665;SDS011;58531;59.050;17.416;2023-04-06T01:14:22;4.10;;;1.80;;
12665;SDS011;58531;59.050;17.416;2023-04-06T01:16:49;1.50;;;1.40;;
12665;SDS011;58531;59.050;17.416;2023-04-06T01:19:16;1.60;;;1.40;;
12665;SDS011;58531;59.050;17.416;2023-04-06T01:21:42;1.60;;;1.50;;
12665;SDS011;58531;59.050;17.416;2023-04-06T01:24:11;3.00;;;1.97;;
12665;SDS011;58531;59.050;17.416;2023-04-06T01:26:38;1.80;;;1.50;;
12665;SDS011;58531;59.050;17.416;2023-04-06T01:29:05;1.70;;;1.50;;
12665;SDS011;58531;59.050;17.416;2023-04-06T01:31:32;3.97;;;1.50;;
12665;SDS011;58531;59.050;17.416;2023-04-06T01:33:59;1.93;;;1.60;;
12665;SDS011;58531;59.050;17.416;2023-04-06T01:36:25;4.20;;;1.90;;
12665;SDS011;58531;59.050;17.416;2023-04-06T01:38:52;1.70;;;1.50;;
12665;SDS011;58531;59.050;17.416;2023-04-06T01:41:21;2.43;;;1.63;;
12665;SDS011;58531;59.050;17.416;2023-04-06T01:43:47;2.07;;;1.57;;
12665;SDS011;58531;59.050;17.416;2023-04-06T01:46:15;4.13;;;1.73;;
12665;SDS011;58531;59.050;17.416;2023-04-06T01:48:42;3.90;;;1.77;;
12665;SDS011;58531;59.050;17.416;2023-04-06T01:51:08;5.37;;;2.23;;
12665;SDS011;58531;59.050;17.416;2023-04-06T01:53:35;2.67;;;1.70;;
12665;SDS011;58531;59.050;17.416;2023-04-06T01:56:02;4.03;;;1.73;;
12665;SDS011;58531;59.050;17.416;2023-04-06T01:58:31;4.53;;;2.20;;
12665;SDS011;58531;59.050;17.416;2023-04-06T02:00:58;4.63;;;1.90;;
12665;SDS011;58531;59.050;17.416;2023-04-06T02:03:25;2.90;;;2.10;;
12665;SDS011;58531;59.050;17.416;2023-04-06T02:05:52;5.03;;;1.90;;
12665;SDS011;58531;59.050;17.416;2023-04-06T02:08:19;4.70;;;2.10;;
12665;SDS011;58531;59.050;17.416;2023-04-06T02:10:45;5.03;;;1.93;;
12665;SDS011;58531;59.050;17.416;2023-04-06T02:13:12;2.60;;;2.07;;
12665;SDS011;58531;59.050;17.416;2023-04-06T02:15:40;3.30;;;2.17;;
12665;SDS011;58531;59.050;17.416;2023-04-06T02:18:07;2.13;;;1.87;;
12665;SDS011;58531;59.050;17.416;2023-04-06T02:20:35;3.77;;;1.80;;
12665;SDS011;58531;59.050;17.416;2023-04-06T02:23:01;3.03;;;1.57;;
12665;SDS011;58531;59.050;17.416;2023-04-06T02:25:28;2.30;;;2.10;;
12665;SDS011;58531;59.050;17.416;2023-04-06T02:27:55;2.17;;;1.97;;
12665;SDS011;58531;59.050;17.416;2023-04-06T02:30:22;3.17;;;1.70;;
12665;SDS011;58531;59.050;17.416;2023-04-06T02:32:50;5.20;;;2.13;;
12665;SDS011;58531;59.050;17.416;2023-04-06T02:35:17;4.57;;;2.07;;
12665;SDS011;58531;59.050;17.416;2023-04-06T02:37:44;2.43;;;1.80;;
12665;SDS011;58531;59.050;17.416;2023-04-06T02:40:11;5.73;;;2.30;;
12665;SDS011;58531;59.050;17.416;2023-04-06T02:42:38;6.17;;;2.13;;
12665;SDS011;58531;59.050;17.416;2023-04-06T02:45:05;5.57;;;2.37;;
12665;SDS011;58531;59.050;17.416;2023-04-06T02:47:32;4.57;;;2.10;;
12665;SDS011;58531;59.050;17.416;2023-04-06T02:50:01;2.90;;;2.10;;
12665;SDS011;58531;59.050;17.416;2023-04-06T02:52:28;4.57;;;2.00;;
12665;SDS011;58531;59.050;17.416;2023-04-06T02:54:55;4.37;;;2.07;;
12665;SDS011;58531;59.050;17.416;2023-04-06T02:57:22;3.03;;;2.10;;
12665;SDS011;58531;59.050;17.416;2023-04-06T02:59:48;3.63;;;2.20;;
12665;SDS011;58531;59.050;17.416;2023-04-06T03:02:15;3.97;;;2.07;;
12665;SDS011;58531;59.050;17.416;2023-04-06T03:04:42;3.03;;;1.87;;
12665;SDS011;58531;59.050;17.416;2023-04-06T03:07:12;4.83;;;2.00;;
12665;SDS011;58531;59.050;17.416;2023-04-06T03:09:38;3.30;;;2.20;;
12665;SDS011;58531;59.050;17.416;2023-04-06T03:12:05;3.10;;;2.47;;
12665;SDS011;58531;59.050;17.416;2023-04-06T03:14:32;2.07;;;1.67;;
12665;SDS011;58531;59.050;17.416;2023-04-06T03:16:59;3.57;;;2.00;;
12665;SDS011;58531;59.050;17.416;2023-04-06T03:19:27;2.40;;;2.10;;
12665;SDS011;58531;59.050;17.416;2023-04-06T03:21:54;3.67;;;2.60;;
12665;SDS011;58531;59.050;17.416;2023-04-06T03:24:22;4.23;;;2.27;;
12665;SDS011;58531;59.050;17.416;2023-04-06T03:26:49;3.70;;;2.43;;
12665;SDS011;58531;59.050;17.416;2023-04-06T03:29:16;5.87;;;3.30;;
12665;SDS011;58531;59.050;17.416;2023-04-06T03:31:42;4.53;;;2.63;;
12665;SDS011;58531;59.050;17.416;2023-04-06T03:34:09;3.67;;;2.20;;
12665;SDS011;58531;59.050;17.416;2023-04-06T03:36:36;2.50;;;2.03;;
12665;SDS011;58531;59.050;17.416;2023-04-06T03:39:03;3.27;;;2.00;;
12665;SDS011;58531;59.050;17.416;2023-04-06T03:41:31;3.93;;;1.67;;
12665;SDS011;58531;59.050;17.416;2023-04-06T03:43:58;2.50;;;2.13;;
12665;SDS011;58531;59.050;17.416;2023-04-06T03:46:25;2.50;;;2.13;;
12665;SDS011;58531;59.050;17.416;2023-04-06T03:48:52;4.10;;;2.27;;
12665;SDS011;58531;59.050;17.416;2023-04-06T03:51:19;2.00;;;1.80;;
12665;SDS011;58531;59.050;17.416;2023-04-06T03:53:46;2.47;;;2.07;;
12665;SDS011;58531;59.050;17.416;2023-04-06T03:56:13;3.47;;;1.90;;
12665;SDS011;58531;59.050;17.416;2023-04-06T03:58:41;7.73;;;3.90;;
12665;SDS011;58531;59.050;17.416;2023-04-06T04:01:09;13.27;;;6.73;;
12665;SDS011;58531;59.050;17.416;2023-04-06T04:03:36;2.13;;;1.93;;
12665;SDS011;58531;59.050;17.416;2023-04-06T04:06:03;2.40;;;1.83;;
12665;SDS011;58531;59.050;17.416;2023-04-06T04:08:30;2.60;;;2.20;;
12665;SDS011;58531;59.050;17.416;2023-04-06T04:10:57;3.37;;;2.00;;
12665;SDS011;58531;59.050;17.416;2023-04-06T04:13:24;2.70;;;1.80;;
12665;SDS011;58531;59.050;17.416;2023-04-06T04:15:52;2.20;;;1.67;;
12665;SDS011;58531;59.050;17.416;2023-04-06T04:18:19;1.80;;;1.70;;
12665;SDS011;58531;59.050;17.416;2023-04-06T04:20:46;3.67;;;1.70;;
12665;SDS011;58531;59.050;17.416;2023-04-06T04:23:13;1.77;;;1.67;;
12665;SDS011;58531;59.050;17.416;2023-04-06T04:25:40;2.73;;;1.60;;
12665;SDS011;58531;59.050;17.416;2023-04-06T04:28:07;3.07;;;1.43;;
12665;SDS011;58531;59.050;17.416;2023-04-06T04:30:34;4.60;;;1.90;;
12665;SDS011;58531;59.050;17.416;2023-04-06T04:33:02;2.17;;;1.70;;
12665;SDS011;58531;59.050;17.416;2023-04-06T04:35:29;3.03;;;1.83;;
12665;SDS011;58531;59.050;17.416;2023-04-06T04:37:56;2.73;;;2.00;;
12665;SDS011;58531;59.050;17.416;2023-04-06T04:40:22;2.80;;;2.20;;
12665;SDS011;58531;59.050;17.416;2023-04-06T04:42:49;3.23;;;1.90;;
12665;SDS011;58531;59.050;17.416;2023-04-06T04:45:17;2.80;;;2.23;;
12665;SDS011;58531;59.050;17.416;2023-04-06T04:47:44;4.97;;;2.07;;
12665;SDS011;58531;59.050;17.416;2023-04-06T04:50:12;3.30;;;2.27;;
12665;SDS011;58531;59.050;17.416;2023-04-06T04:52:39;3.33;;;2.00;;
12665;SDS011;58531;59.050;17.416;2023-04-06T04:55:06;2.63;;;1.73;;
12665;SDS011;58531;59.050;17.416;2023-04-06T04:57:33;2.80;;;2.50;;
12665;SDS011;58531;59.050;17.416;2023-04-06T05:00:00;2.53;;;2.20;;
12665;SDS011;58531;59.050;17.416;2023-04-06T05:02:27;4.10;;;2.10;;
12665;SDS011;58531;59.050;17.416;2023-04-06T05:04:54;3.90;;;2.57;;
12665;SDS011;58531;59.050;17.416;2023-04-06T05:07:22;2.90;;;1.83;;
12665;SDS011;58531;59.050;17.416;2023-04-06T05:09:49;5.07;;;2.13;;
12665;SDS011;58531;59.050;17.416;2023-04-06T05:12:16;2.53;;;1.60;;
12665;SDS011;58531;59.050;17.416;2023-04-06T05:14:42;3.60;;;2.30;;
12665;SDS011;58531;59.050;17.416;2023-04-06T05:17:10;2.80;;;2.33;;
12665;SDS011;58531;59.050;17.416;2023-04-06T05:19:37;3.33;;;2.40;;
12665;SDS011;58531;59.050;17.416;2023-04-06T05:22:04;3.83;;;2.60;;
12665;SDS011;58531;59.050;17.416;2023-04-06T05:24:32;2.93;;;2.30;;
12665;SDS011;58531;59.050;17.416;2023-04-06T05:27:00;4.17;;;2.50;;
12665;SDS011;58531;59.050;17.416;2023-04-06T05:29:27;4.40;;;2.70;;
12665;SDS011;58531;59.050;17.416;2023-04-06T05:31:53;3.03;;;2.33;;
12665;SDS011;58531;59.050;17.416;2023-04-06T05:34:20;2.73;;;2.30;;
12665;SDS011;58531;59.050;17.416;2023-04-06T05:36:47;5.23;;;2.30;;
12665;SDS011;58531;59.050;17.416;2023-04-06T05:39:14;3.90;;;2.07;;
12665;SDS011;58531;59.050;17.416;2023-04-06T05:41:42;2.83;;;2.30;;
12665;SDS011;58531;59.050;17.416;2023-04-06T05:44:09;3.07;;;1.90;;
12665;SDS011;58531;59.050;17.416;2023-04-06T05:46:36;3.73;;;2.00;;
12665;SDS011;58531;59.050;17.416;2023-04-06T05:49:03;2.20;;;1.40;;
12665;SDS011;58531;59.050;17.416;2023-04-06T05:51:30;1.70;;;1.40;;
12665;SDS011;58531;59.050;17.416;2023-04-06T05:53:56;1.83;;;1.50;;
12665;SDS011;58531;59.050;17.416;2023-04-06T05:56:24;1.80;;;1.57;;
12665;SDS011;58531;59.050;17.416;2023-04-06T05:58:52;1.30;;;1.00;;
12665;SDS011;58531;59.050;17.416;2023-04-06T06:01:19;0.97;;;0.90;;
12665;SDS011;58531;59.050;17.416;2023-04-06T06:03:46;0.50;;;0.50;;
12665;SDS011;58531;59.050;17.416;2023-04-06T06:06:13;1.00;;;0.90;;
12665;SDS011;58531;59.050;17.416;2023-04-06T06:08:40;1.27;;;1.00;;
12665;SDS011;58531;59.050;17.416;2023-04-06T06:11:07;0.93;;;0.80;;
12665;SDS011;58531;59.050;17.416;2023-04-06T06:13:33;1.00;;;0.87;;
12665;SDS011;58531;59.050;17.416;2023-04-06T06:16:02;0.87;;;0.77;;
12665;SDS011;58531;59.050;17.416;2023-04-06T06:18:30;1.03;;;0.90;;
12665;SDS011;58531;59.050;17.416;2023-04-06T06:20:57;1.37;;;1.00;;
12665;SDS011;58531;59.050;17.416;2023-04-06T06:23:24;0.97;;;0.87;;
12665;SDS011;58531;59.050;17.416;2023-04-06T06:25:51;1.17;;;0.90;;
12665;SDS011;58531;59.050;17.416;2023-04-06T06:28:18;1.20;;;0.97;;
12665;SDS011;58531;59.050;17.416;2023-04-06T06:30:45;1.53;;;0.90;;
12665;SDS011;58531;59.050;17.416;2023-04-06T06:33:13;1.57;;;1.07;;
12665;SDS011;58531;59.050;17.416;2023-04-06T06:35:40;1.40;;;1.00;;
12665;SDS011;58531;59.050;17.416;2023-04-06T06:38:07;1.00;;;0.90;;
12665;SDS011;58531;59.050;17.416;2023-04-06T06:40:34;2.17;;;1.10;;
12665;SDS011;58531;59.050;17.416;2023-04-06T06:43:02;1.57;;;1.07;;
12665;SDS011;58531;59.050;17.416;2023-04-06T06:45:29;1.63;;;1.00;;
12665;SDS011;58531;59.050;17.416;2023-04-06T06:47:55;0.93;;;0.83;;
12665;SDS011;58531;59.050;17.416;2023-04-06T06:50:24;0.90;;;0.80;;
12665;SDS011;58531;59.050;17.416;2023-04-06T06:52:51;1.63;;;0.90;;
12665;SDS011;58531;59.050;17.416;2023-04-06T06:55:18;1.63;;;1.10;;
12665;SDS011;58531;59.050;17.416;2023-04-06T06:57:45;0.70;;;0.70;;
12665;SDS011;58531;59.050;17.416;2023-04-06T07:00:13;2.03;;;0.90;;
12665;SDS011;58531;59.050;17.416;2023-04-06T07:02:40;1.10;;;0.90;;
12665;SDS011;58531;59.050;17.416;2023-04-06T07:05:07;0.87;;;0.87;;
12665;SDS011;58531;59.050;17.416;2023-04-06T07:07:35;1.50;;;0.83;;
12665;SDS011;58531;59.050;17.416;2023-04-06T07:10:02;0.77;;;0.73;;
12665;SDS011;58531;59.050;17.416;2023-04-06T07:12:30;1.03;;;0.70;;
12665;SDS011;58531;59.050;17.416;2023-04-06T07:14:56;0.97;;;0.83;;
12665;SDS011;58531;59.050;17.416;2023-04-06T07:17:23;0.80;;;0.80;;
12665;SDS011;58531;59.050;17.416;2023-04-06T07:19:50;0.60;;;0.60;;
12665;SDS011;58531;59.050;17.416;2023-04-06T07:22:17;1.90;;;0.80;;
12665;SDS011;58531;59.050;17.416;2023-04-06T07:24:45;2.10;;;0.80;;
12665;SDS011;58531;59.050;17.416;2023-04-06T07:27:12;1.67;;;0.80;;
12665;SDS011;58531;59.050;17.416;2023-04-06T07:29:39;0.70;;;0.70;;
12665;SDS011;58531;59.050;17.416;2023-04-06T07:32:05;0.70;;;0.70;;
12665;SDS011;58531;59.050;17.416;2023-04-06T07:34:32;0.60;;;0.60;;
12665;SDS011;58531;59.050;17.416;2023-04-06T07:36:59;0.77;;;0.77;;
12665;SDS011;58531;59.050;17.416;2023-04-06T07:39:26;0.70;;;0.70;;
12665;SDS011;58531;59.050;17.416;2023-04-06T07:41:56;0.50;;;0.50;;
12665;SDS011;58531;59.050;17.416;2023-04-06T07:44:22;0.97;;;0.70;;
12665;SDS011;58531;59.050;17.416;2023-04-06T07:46:49;1.63;;;1.20;;
12665;SDS011;58531;59.050;17.416;2023-04-06T07:49:16;0.60;;;0.60;;
12665;SDS011;58531;59.050;17.416;2023-04-06T07:51:43;0.80;;;0.60;;
12665;SDS011;58531;59.050;17.416;2023-04-06T07:54:10;1.17;;;0.80;;
12665;SDS011;58531;59.050;17.416;2023-04-06T07:56:37;0.67;;;0.50;;
12665;SDS011;58531;59.050;17.416;2023-04-06T07:59:05;0.93;;;0.70;;
12665;SDS011;58531;59.050;17.416;2023-04-06T08:01:32;0.93;;;0.70;;
12665;SDS011;58531;59.050;17.416;2023-04-06T08:03:59;0.70;;;0.70;;
12665;SDS011;58531;59.050;17.416;2023-04-06T08:06:27;0.60;;;0.50;;
12665;SDS011;58531;59.050;17.416;2023-04-06T08:08:54;1.13;;;0.73;;
12665;SDS011;58531;59.050;17.416;2023-04-06T08:11:22;1.37;;;0.70;;
12665;SDS011;58531;59.050;17.416;2023-04-06T08:13:49;1.00;;;0.73;;
12665;SDS011;58531;59.050;17.416;2023-04-06T08:16:17;1.10;;;0.60;;
12665;SDS011;58531;59.050;17.416;2023-04-06T08:18:45;1.00;;;0.80;;
12665;SDS011;58531;59.050;17.416;2023-04-06T08:21:12;1.20;;;0.60;;
12665;SDS011;58531;59.050;17.416;2023-04-06T08:23:38;0.60;;;0.60;;
12665;SDS011;58531;59.050;17.416;2023-04-06T08:26:05;0.70;;;0.43;;
12665;SDS011;58531;59.050;17.416;2023-04-06T08:28:32;2.10;;;0.80;;
12665;SDS011;58531;59.050;17.416;2023-04-06T08:31:02;1.20;;;0.90;;
12665;SDS011;58531;59.050;17.416;2023-04-06T08:33:31;0.50;;;0.50;;
12665;SDS011;58531;59.050;17.416;2023-04-06T08:36:06;0.93;;;0.60;;
12665;SDS011;58531;59.050;17.416;2023-04-06T08:38:33;0.87;;;0.70;;
12665;SDS011;58531;59.050;17.416;2023-04-06T08:41:05;0.60;;;0.60;;
12665;SDS011;58531;59.050;17.416;2023-04-06T08:43:34;1.13;;;0.80;;
12665;SDS011;58531;59.050;17.416;2023-04-06T08:46:07;0.73;;;0.63;;
12665;SDS011;58531;59.050;17.416;2023-04-06T08:48:36;0.53;;;0.53;;
12665;SDS011;58531;59.050;17.416;2023-04-06T08:51:04;0.70;;;0.70;;
12665;SDS011;58531;59.050;17.416;2023-04-06T08:53:31;0.50;;;0.50;;
12665;SDS011;58531;59.050;17.416;2023-04-06T08:55:58;1.00;;;0.70;;
12665;SDS011;58531;59.050;17.416;2023-04-06T08:58:28;1.17;;;0.70;;
12665;SDS011;58531;59.050;17.416;2023-04-06T09:00:57;0.77;;;0.77;;
12665;SDS011;58531;59.050;17.416;2023-04-06T09:03:25;0.83;;;0.80;;
12665;SDS011;58531;59.050;17.416;2023-04-06T09:05:55;1.43;;;0.90;;
12665;SDS011;58531;59.050;17.416;2023-04-06T09:08:22;0.97;;;0.80;;
12665;SDS011;58531;59.050;17.416;2023-04-06T09:10:48;1.47;;;0.70;;
12665;SDS011;58531;59.050;17.416;2023-04-06T09:13:17;1.13;;;0.77;;
12665;SDS011;58531;59.050;17.416;2023-04-06T09:15:43;1.57;;;0.80;;
12665;SDS011;58531;59.050;17.416;2023-04-06T09:18:10;1.30;;;0.73;;
12665;SDS011;58531;59.050;17.416;2023-04-06T09:20:37;0.73;;;0.70;;
12665;SDS011;58531;59.050;17.416;2023-04-06T09:23:05;0.70;;;0.70;;
12665;SDS011;58531;59.050;17.416;2023-04-06T09:25:32;1.37;;;0.90;;
12665;SDS011;58531;59.050;17.416;2023-04-06T09:27:59;1.20;;;0.90;;
12665;SDS011;58531;59.050;17.416;2023-04-06T09:30:27;2.17;;;0.90;;
12665;SDS011;58531;59.050;17.416;2023-04-06T09:32:54;0.97;;;0.80;;
12665;SDS011;58531;59.050;17.416;2023-04-06T09:35:22;1.70;;;0.80;;
12665;SDS011;58531;59.050;17.416;2023-04-06T09:37:51;0.80;;;0.77;;
12665;SDS011;58531;59.050;17.416;2023-04-06T09:40:20;0.97;;;0.70;;
12665;SDS011;58531;59.050;17.416;2023-04-06T09:42:48;1.23;;;0.90;;
12665;SDS011;58531;59.050;17.416;2023-04-06T09:45:18;1.10;;;0.93;;
12665;SDS011;58531;59.050;17.416;2023-04-06T09:47:46;0.50;;;0.50;;
12665;SDS011;58531;59.050;17.416;2023-04-06T09:50:13;0.80;;;0.80;;
12665;SDS011;58531;59.050;17.416;2023-04-06T09:52:42;1.27;;;1.00;;
12665;SDS011;58531;59.050;17.416;2023-04-06T09:55:16;1.27;;;0.73;;
12665;SDS011;58531;59.050;17.416;2023-04-06T09:57:55;0.60;;;0.60;;
12665;SDS011;58531;59.050;17.416;2023-04-06T10:00:25;1.03;;;0.60;;
12665;SDS011;58531;59.050;17.416;2023-04-06T10:02:56;0.80;;;0.63;;
12665;SDS011;58531;59.050;17.416;2023-04-06T10:05:27;0.77;;;0.77;;
12665;SDS011;58531;59.050;17.416;2023-04-06T10:08:02;0.90;;;0.80;;
12665;SDS011;58531;59.050;17.416;2023-04-06T10:10:32;0.70;;;0.70;;
12665;SDS011;58531;59.050;17.416;2023-04-06T10:13:00;0.93;;;0.67;;
12665;SDS011;58531;59.050;17.416;2023-04-06T10:15:28;1.37;;;0.90;;
12665;SDS011;58531;59.050;17.416;2023-04-06T10:17:56;1.97;;;0.63;;
12665;SDS011;58531;59.050;17.416;2023-04-06T10:20:25;0.93;;;0.70;;
12665;SDS011;58531;59.050;17.416;2023-04-06T10:22:59;1.10;;;0.70;;
12665;SDS011;58531;59.050;17.416;2023-04-06T10:25:32;0.60;;;0.60;;
12665;SDS011;58531;59.050;17.416;2023-04-06T10:28:01;0.73;;;0.60;;
12665;SDS011;58531;59.050;17.416;2023-04-06T10:30:32;0.77;;;0.50;;
12665;SDS011;58531;59.050;17.416;2023-04-06T10:32:59;1.10;;;0.63;;
12665;SDS011;58531;59.050;17.416;2023-04-06T10:35:36;1.90;;;1.13;;
12665;SDS011;58531;59.050;17.416;2023-04-06T10:38:04;0.83;;;0.67;;
12665;SDS011;58531;59.050;17.416;2023-04-06T10:40:32;0.60;;;0.60;;
12665;SDS011;58531;59.050;17.416;2023-04-06T10:43:13;1.23;;;0.73;;
12665;SDS011;58531;59.050;17.416;2023-04-06T10:45:44;1.70;;;0.60;;
12665;SDS011;58531;59.050;17.416;2023-04-06T10:48:20;0.93;;;0.70;;
12665;SDS011;58531;59.050;17.416;2023-04-06T10:50:49;0.70;;;0.70;;
12665;SDS011;58531;59.050;17.416;2023-04-06T10:53:21;1.90;;;1.03;;
12665;SDS011;58531;59.050;17.416;2023-04-06T10:55:49;0.80;;;0.80;;
12665;SDS011;58531;59.050;17.416;2023-04-06T10:58:17;1.47;;;0.90;;
12665;SDS011;58531;59.050;17.416;2023-04-06T11:00:45;0.60;;;0.60;;
12665;SDS011;58531;59.050;17.416;2023-04-06T11:03:13;3.07;;;0.93;;
12665;SDS011;58531;59.050;17.416;2023-04-06T11:05:43;0.57;;;0.57;;
12665;SDS011;58531;59.050;17.416;2023-04-06T11:08:10;0.77;;;0.63;;
12665;SDS011;58531;59.050;17.416;2023-04-06T11:10:48;0.50;;;0.50;;
12665;SDS011;58531;59.050;17.416;2023-04-06T11:13:15;0.60;;;0.60;;
12665;SDS011;58531;59.050;17.416;2023-04-06T11:15:43;1.50;;;0.80;;
12665;SDS011;58531;59.050;17.416;2023-04-06T11:18:10;1.07;;;0.97;;
12665;SDS011;58531;59.050;17.416;2023-04-06T11:20:37;0.77;;;0.77;;
12665;SDS011;58531;59.050;17.416;2023-04-06T11:23:04;1.00;;;0.90;;
12665;SDS011;58531;59.050;17.416;2023-04-06T11:25:31;0.80;;;0.77;;
12665;SDS011;58531;59.050;17.416;2023-04-06T11:27:58;0.70;;;0.70;;
12665;SDS011;58531;59.050;17.416;2023-04-06T11:30:25;1.80;;;0.70;;
12665;SDS011;58531;59.050;17.416;2023-04-06T11:32:59;1.13;;;0.67;;
12665;SDS011;58531;59.050;17.416;2023-04-06T11:35:27;0.70;;;0.60;;
12665;SDS011;58531;59.050;17.416;2023-04-06T11:37:57;0.87;;;0.80;;
12665;SDS011;58531;59.050;17.416;2023-04-06T11:40:24;0.90;;;0.73;;
12665;SDS011;58531;59.050;17.416;2023-04-06T11:42:53;1.07;;;0.70;;
12665;SDS011;58531;59.050;17.416;2023-04-06T11:45:21;2.47;;;1.83;;
12665;SDS011;58531;59.050;17.416;2023-04-06T11:47:56;0.80;;;0.80;;
12665;SDS011;58531;59.050;17.416;2023-04-06T11:50:24;1.10;;;0.90;;
12665;SDS011;58531;59.050;17.416;2023-04-06T11:52:57;1.00;;;0.90;;
12665;SDS011;58531;59.050;17.416;2023-04-06T11:55:25;1.03;;;0.93;;
12665;SDS011;58531;59.050;17.416;2023-04-06T11:57:52;1.43;;;0.83;;
12665;SDS011;58531;59.050;17.416;2023-04-06T12:00:20;0.80;;;0.80;;
12665;SDS011;58531;59.050;17.416;2023-04-06T12:02:48;1.20;;;0.90;;
12665;SDS011;58531;59.050;17.416;2023-04-06T12:05:16;1.17;;;1.00;;
12665;SDS011;58531;59.050;17.416;2023-04-06T12:07:43;4.87;;;2.17;;
12665;SDS011;58531;59.050;17.416;2023-04-06T12:10:11;1.10;;;0.93;;
12665;SDS011;58531;59.050;17.416;2023-04-06T12:12:37;2.63;;;0.90;;
12665;SDS011;58531;59.050;17.416;2023-04-06T12:15:05;0.77;;;0.73;;
12665;SDS011;58531;59.050;17.416;2023-04-06T12:17:33;2.83;;;1.00;;
12665;SDS011;58531;59.050;17.416;2023-04-06T12:19:59;1.10;;;0.67;;
12665;SDS011;58531;59.050;17.416;2023-04-06T12:22:29;0.70;;;0.70;;
12665;SDS011;58531;59.050;17.416;2023-04-06T12:24:56;1.10;;;0.90;;
12665;SDS011;58531;59.050;17.416;2023-04-06T12:27:24;1.07;;;0.90;;
12665;SDS011;58531;59.050;17.416;2023-04-06T12:29:51;2.30;;;1.00;;
12665;SDS011;58531;59.050;17.416;2023-04-06T12:32:18;1.17;;;0.90;;
12665;SDS011;58531;59.050;17.416;2023-04-06T12:34:45;2.40;;;1.00;;
12665;SDS011;58531;59.050;17.416;2023-04-06T12:37:12;0.80;;;0.70;;
12665;SDS011;58531;59.050;17.416;2023-04-06T12:39:40;1.67;;;1.03;;
12665;SDS011;58531;59.050;17.416;2023-04-06T12:42:09;0.77;;;0.77;;
12665;SDS011;58531;59.050;17.416;2023-04-06T12:44:37;1.10;;;0.77;;
12665;SDS011;58531;59.050;17.416;2023-04-06T12:47:04;1.20;;;0.80;;
12665;SDS011;58531;59.050;17.416;2023-04-06T12:49:32;0.80;;;0.80;;
12665;SDS011;58531;59.050;17.416;2023-04-06T12:51:59;1.03;;;0.93;;
12665;SDS011;58531;59.050;17.416;2023-04-06T12:54:27;1.33;;;0.80;;
12665;SDS011;58531;59.050;17.416;2023-04-06T12:56:55;2.40;;;0.80;;
12665;SDS011;58531;59.050;17.416;2023-04-06T12:59:22;1.20;;;1.10;;
12665;SDS011;58531;59.050;17.416;2023-04-06T13:01:50;1.33;;;0.90;;
12665;SDS011;58531;59.050;17.416;2023-04-06T13:04:17;1.00;;;0.83;;
12665;SDS011;58531;59.050;17.416;2023-04-06T13:06:44;1.20;;;1.00;;
12665;SDS011;58531;59.050;17.416;2023-04-06T13:09:11;0.87;;;0.80;;
12665;SDS011;58531;59.050;17.416;2023-04-06T13:11:38;1.47;;;0.80;;
12665;SDS011;58531;59.050;17.416;2023-04-06T13:14:07;1.77;;;1.00;;
12665;SDS011;58531;59.050;17.416;2023-04-06T13:16:35;2.80;;;0.90;;
12665;SDS011;58531;59.050;17.416;2023-04-06T13:19:02;0.87;;;0.80;;
12665;SDS011;58531;59.050;17.416;2023-04-06T13:21:29;2.57;;;1.07;;
12665;SDS011;58531;59.050;17.416;2023-04-06T13:23:56;1.60;;;1.00;;
12665;SDS011;58531;59.050;17.416;2023-04-06T13:26:23;3.50;;;0.97;;
12665;SDS011;58531;59.050;17.416;2023-04-06T13:28:50;0.97;;;0.93;;
12665;SDS011;58531;59.050;17.416;2023-04-06T13:31:18;1.00;;;0.90;;
12665;SDS011;58531;59.050;17.416;2023-04-06T13:33:45;0.90;;;0.90;;
12665;SDS011;58531;59.050;17.416;2023-04-06T13:36:12;1.53;;;0.90;;
12665;SDS011;58531;59.050;17.416;2023-04-06T13:38:39;1.37;;;1.07;;
12665;SDS011;58531;59.050;17.416;2023-04-06T13:41:06;1.17;;;1.07;;
12665;SDS011;58531;59.050;17.416;2023-04-06T13:43:33;1.43;;;1.00;;
12665;SDS011;58531;59.050;17.416;2023-04-06T13:46:00;1.47;;;1.13;;
12665;SDS011;58531;59.050;17.416;2023-04-06T13:48:28;1.30;;;1.10;;
12665;SDS011;58531;59.050;17.416;2023-04-06T13:50:55;1.00;;;0.93;;
12665;SDS011;58531;59.050;17.416;2023-04-06T13:53:22;2.20;;;1.20;;
12665;SDS011;58531;59.050;17.416;2023-04-06T13:55:52;2.00;;;1.20;;
12665;SDS011;58531;59.050;17.416;2023-04-06T13:58:20;1.10;;;1.00;;
12665;SDS011;58531;59.050;17.416;2023-04-06T14:00:47;2.00;;;1.00;;
12665;SDS011;58531;59.050;17.416;2023-04-06T14:03:13;1.33;;;1.10;;
12665;SDS011;58531;59.050;17.416;2023-04-06T14:05:42;1.57;;;0.90;;
12665;SDS011;58531;59.050;17.416;2023-04-06T14:08:08;1.20;;;1.10;;
12665;SDS011;58531;59.050;17.416;2023-04-06T14:10:36;2.60;;;1.77;;
12665;SDS011;58531;59.050;17.416;2023-04-06T14:13:03;1.20;;;1.10;;
12665;SDS011;58531;59.050;17.416;2023-04-06T14:15:30;1.23;;;1.10;;
12665;SDS011;58531;59.050;17.416;2023-04-06T14:17:57;1.53;;;1.00;;
12665;SDS011;58531;59.050;17.416;2023-04-06T14:20:25;1.20;;;1.10;;
12665;SDS011;58531;59.050;17.416;2023-04-06T14:22:53;1.20;;;1.10;;
12665;SDS011;58531;59.050;17.416;2023-04-06T14:25:20;2.13;;;1.30;;
12665;SDS011;58531;59.050;17.416;2023-04-06T14:27:47;1.27;;;1.00;;
12665;SDS011;58531;59.050;17.416;2023-04-06T14:30:14;2.37;;;1.23;;
12665;SDS011;58531;59.050;17.416;2023-04-06T14:32:41;1.30;;;1.00;;
12665;SDS011;58531;59.050;17.416;2023-04-06T14:35:08;1.53;;;1.10;;